sensor_id;sensor_type;location;lat;lon;timestamp;P1;durP1;ratioP1;P2;durP2;ratioP2
8944;SDS011;4507;40.232;29.132;2023-07-13T00:01:40;30.47;;;22.97;;
8944;SDS011;4507;40.232;29.132;2023-07-13T00:04:11;45.90;;;23.33;;
8944;SDS011;4507;40.232;29.132;2023-07-13T00:06:40;43.57;;;24.00;;
8944;SDS011;4507;40.232;29.132;2023-07-13T00:09:11;29.90;;;22.43;;
8944;SDS011;4507;40.232;29.132;2023-07-13T00:11:41;28.80;;;23.03;;
8944;SDS011;4507;40.232;29.132;2023-07-13T00:14:10;25.63;;;22.27;;
8944;SDS011;4507;40.232;29.132;2023-07-13T00:16:39;23.63;;;21.20;;
8944;SDS011;4507;40.232;29.132;2023-07-13T00:19:12;24.70;;;22.23;;
8944;SDS011;4507;40.232;29.132;2023-07-13T00:21:41;26.10;;;22.00;;
8944;SDS011;4507;40.232;29.132;2023-07-13T00:24:11;25.87;;;21.53;;
8944;SDS011;4507;40.232;29.132;2023-07-13T00:26:42;28.20;;;22.23;;
8944;SDS011;4507;40.232;29.132;2023-07-13T00:29:12;24.80;;;21.87;;
8944;SDS011;4507;40.232;29.132;2023-07-13T00:32:01;24.73;;;22.13;;
8944;SDS011;4507;40.232;29.132;2023-07-13T00:34:32;30.27;;;22.33;;
8944;SDS011;4507;40.232;29.132;2023-07-13T00:37:01;24.70;;;22.13;;
8944;SDS011;4507;40.232;29.132;2023-07-13T00:39:34;27.33;;;21.97;;
8944;SDS011;4507;40.232;29.132;2023-07-13T00:42:04;22.93;;;20.60;;
8944;SDS011;4507;40.232;29.132;2023-07-13T00:44:33;23.47;;;21.00;;
8944;SDS011;4507;40.232;29.132;2023-07-13T00:47:02;26.63;;;20.63;;
8944;SDS011;4507;40.232;29.132;2023-07-13T00:49:35;29.50;;;21.63;;
8944;SDS011;4507;40.232;29.132;2023-07-13T00:52:11;24.40;;;21.80;;
8944;SDS011;4507;40.232;29.132;2023-07-13T00:54:43;25.50;;;22.03;;
8944;SDS011;4507;40.232;29.132;2023-07-13T01:00:42;24.60;;;22.00;;
8944;SDS011;4507;40.232;29.132;2023-07-13T01:04:00;28.77;;;22.63;;
8944;SDS011;4507;40.232;29.132;2023-07-13T01:06:49;25.03;;;22.40;;
8944;SDS011;4507;40.232;29.132;2023-07-13T01:09:18;26.03;;;22.83;;
8944;SDS011;4507;40.232;29.132;2023-07-13T01:12:10;23.63;;;21.13;;
8944;SDS011;4507;40.232;29.132;2023-07-13T01:14:46;26.20;;;22.03;;
8944;SDS011;4507;40.232;29.132;2023-07-13T01:21:33;27.17;;;23.63;;
8944;SDS011;4507;40.232;29.132;2023-07-13T01:24:04;31.47;;;23.87;;
8944;SDS011;4507;40.232;29.132;2023-07-13T01:26:36;26.27;;;23.27;;
8944;SDS011;4507;40.232;29.132;2023-07-13T01:29:06;29.17;;;25.90;;
8944;SDS011;4507;40.232;29.132;2023-07-13T01:31:38;37.83;;;31.00;;
8944;SDS011;4507;40.232;29.132;2023-07-13T01:34:07;40.73;;;32.37;;
8944;SDS011;4507;40.232;29.132;2023-07-13T01:36:38;52.50;;;40.70;;
8944;SDS011;4507;40.232;29.132;2023-07-13T01:39:06;53.20;;;40.43;;
8944;SDS011;4507;40.232;29.132;2023-07-13T01:41:35;56.00;;;40.93;;
8944;SDS011;4507;40.232;29.132;2023-07-13T01:44:04;51.77;;;40.10;;
8944;SDS011;4507;40.232;29.132;2023-07-13T01:46:33;66.43;;;44.23;;
8944;SDS011;4507;40.232;29.132;2023-07-13T01:49:02;50.07;;;42.93;;
8944;SDS011;4507;40.232;29.132;2023-07-13T01:51:31;49.83;;;40.33;;
8944;SDS011;4507;40.232;29.132;2023-07-13T01:54:02;50.23;;;40.50;;
8944;SDS011;4507;40.232;29.132;2023-07-13T01:56:31;57.33;;;41.83;;
8944;SDS011;4507;40.232;29.132;2023-07-13T01:59:04;55.63;;;41.90;;
8944;SDS011;4507;40.232;29.132;2023-07-13T02:01:39;64.23;;;43.83;;
8944;SDS011;4507;40.232;29.132;2023-07-13T02:04:08;51.80;;;40.17;;
8944;SDS011;4507;40.232;29.132;2023-07-13T02:06:38;52.00;;;42.17;;
8944;SDS011;4507;40.232;29.132;2023-07-13T02:09:08;69.10;;;50.10;;
8944;SDS011;4507;40.232;29.132;2023-07-13T02:11:37;74.47;;;54.37;;
8944;SDS011;4507;40.232;29.132;2023-07-13T02:14:06;75.90;;;53.20;;
8944;SDS011;4507;40.232;29.132;2023-07-13T02:16:35;68.33;;;49.93;;
8944;SDS011;4507;40.232;29.132;2023-07-13T02:19:05;75.87;;;51.67;;
8944;SDS011;4507;40.232;29.132;2023-07-13T02:21:34;70.60;;;49.80;;
8944;SDS011;4507;40.232;29.132;2023-07-13T02:24:04;63.50;;;46.10;;
8944;SDS011;4507;40.232;29.132;2023-07-13T02:26:35;63.67;;;44.53;;
8944;SDS011;4507;40.232;29.132;2023-07-13T02:29:04;49.17;;;34.03;;
8944;SDS011;4507;40.232;29.132;2023-07-13T02:31:33;47.47;;;34.63;;
8944;SDS011;4507;40.232;29.132;2023-07-13T02:34:03;38.00;;;32.40;;
8944;SDS011;4507;40.232;29.132;2023-07-13T02:40:11;38.40;;;32.73;;
8944;SDS011;4507;40.232;29.132;2023-07-13T02:42:42;35.67;;;32.07;;
8944;SDS011;4507;40.232;29.132;2023-07-13T02:45:11;34.63;;;31.23;;
8944;SDS011;4507;40.232;29.132;2023-07-13T02:47:41;40.10;;;32.73;;
8944;SDS011;4507;40.232;29.132;2023-07-13T02:50:10;35.13;;;30.70;;
8944;SDS011;4507;40.232;29.132;2023-07-13T02:52:39;36.90;;;31.33;;
8944;SDS011;4507;40.232;29.132;2023-07-13T02:55:08;33.07;;;29.67;;
8944;SDS011;4507;40.232;29.132;2023-07-13T02:57:37;35.30;;;31.40;;
8944;SDS011;4507;40.232;29.132;2023-07-13T03:00:09;41.87;;;30.10;;
8944;SDS011;4507;40.232;29.132;2023-07-13T03:02:57;43.30;;;32.87;;
8944;SDS011;4507;40.232;29.132;2023-07-13T03:09:16;32.93;;;29.43;;
8944;SDS011;4507;40.232;29.132;2023-07-13T03:11:52;35.60;;;29.87;;
8944;SDS011;4507;40.232;29.132;2023-07-13T03:14:27;49.47;;;30.30;;
8944;SDS011;4507;40.232;29.132;2023-07-13T03:17:00;47.13;;;31.50;;
8944;SDS011;4507;40.232;29.132;2023-07-13T03:19:32;38.43;;;32.03;;
8944;SDS011;4507;40.232;29.132;2023-07-13T03:22:03;39.30;;;33.17;;
8944;SDS011;4507;40.232;29.132;2023-07-13T03:24:33;57.57;;;39.27;;
8944;SDS011;4507;40.232;29.132;2023-07-13T03:27:06;60.73;;;45.97;;
8944;SDS011;4507;40.232;29.132;2023-07-13T03:29:38;47.37;;;40.77;;
8944;SDS011;4507;40.232;29.132;2023-07-13T03:32:09;46.90;;;40.50;;
8944;SDS011;4507;40.232;29.132;2023-07-13T03:34:38;58.63;;;42.13;;
8944;SDS011;4507;40.232;29.132;2023-07-13T03:37:08;62.80;;;36.73;;
8944;SDS011;4507;40.232;29.132;2023-07-13T03:39:37;54.50;;;34.50;;
8944;SDS011;4507;40.232;29.132;2023-07-13T03:42:06;53.50;;;34.33;;
8944;SDS011;4507;40.232;29.132;2023-07-13T03:44:35;116.03;;;66.53;;
8944;SDS011;4507;40.232;29.132;2023-07-13T03:47:05;123.00;;;81.33;;
8944;SDS011;4507;40.232;29.132;2023-07-13T03:49:37;113.97;;;65.70;;
8944;SDS011;4507;40.232;29.132;2023-07-13T03:52:07;117.57;;;85.80;;
8944;SDS011;4507;40.232;29.132;2023-07-13T03:54:36;86.37;;;61.07;;
8944;SDS011;4507;40.232;29.132;2023-07-13T03:57:06;69.87;;;45.27;;
8944;SDS011;4507;40.232;29.132;2023-07-13T03:59:35;52.53;;;37.03;;
8944;SDS011;4507;40.232;29.132;2023-07-13T04:02:07;42.53;;;30.67;;
8944;SDS011;4507;40.232;29.132;2023-07-13T04:04:37;32.87;;;29.17;;
8944;SDS011;4507;40.232;29.132;2023-07-13T04:07:07;35.50;;;28.50;;
8944;SDS011;4507;40.232;29.132;2023-07-13T04:09:38;35.20;;;28.57;;
8944;SDS011;4507;40.232;29.132;2023-07-13T04:12:09;38.07;;;28.87;;
8944;SDS011;4507;40.232;29.132;2023-07-13T04:14:39;50.10;;;28.37;;
8944;SDS011;4507;40.232;29.132;2023-07-13T04:17:08;41.20;;;28.50;;
8944;SDS011;4507;40.232;29.132;2023-07-13T04:19:38;37.37;;;27.57;;
8944;SDS011;4507;40.232;29.132;2023-07-13T04:22:07;38.17;;;27.37;;
8944;SDS011;4507;40.232;29.132;2023-07-13T04:24:36;44.53;;;27.10;;
8944;SDS011;4507;40.232;29.132;2023-07-13T04:27:05;51.30;;;27.10;;
8944;SDS011;4507;40.232;29.132;2023-07-13T04:29:35;37.00;;;25.97;;
8944;SDS011;4507;40.232;29.132;2023-07-13T04:32:04;33.67;;;25.37;;
8944;SDS011;4507;40.232;29.132;2023-07-13T04:34:34;55.53;;;26.70;;
8944;SDS011;4507;40.232;29.132;2023-07-13T04:37:04;37.53;;;25.50;;
8944;SDS011;4507;40.232;29.132;2023-07-13T04:39:34;34.33;;;24.33;;
8944;SDS011;4507;40.232;29.132;2023-07-13T04:42:03;35.60;;;25.37;;
8944;SDS011;4507;40.232;29.132;2023-07-13T04:44:32;34.07;;;24.83;;
8944;SDS011;4507;40.232;29.132;2023-07-13T04:47:02;38.03;;;25.73;;
8944;SDS011;4507;40.232;29.132;2023-07-13T04:49:31;30.30;;;24.73;;
8944;SDS011;4507;40.232;29.132;2023-07-13T04:52:00;42.07;;;24.93;;
8944;SDS011;4507;40.232;29.132;2023-07-13T04:54:30;39.53;;;24.73;;
8944;SDS011;4507;40.232;29.132;2023-07-13T04:56:59;36.63;;;25.33;;
8944;SDS011;4507;40.232;29.132;2023-07-13T04:59:28;54.70;;;25.90;;
8944;SDS011;4507;40.232;29.132;2023-07-13T05:01:57;40.80;;;25.60;;
8944;SDS011;4507;40.232;29.132;2023-07-13T05:04:26;37.70;;;23.80;;
8944;SDS011;4507;40.232;29.132;2023-07-13T05:06:55;48.83;;;24.73;;
8944;SDS011;4507;40.232;29.132;2023-07-13T05:09:24;35.07;;;23.57;;
8944;SDS011;4507;40.232;29.132;2023-07-13T05:11:55;30.27;;;22.80;;
8944;SDS011;4507;40.232;29.132;2023-07-13T05:14:24;33.47;;;22.50;;
8944;SDS011;4507;40.232;29.132;2023-07-13T05:16:53;38.57;;;23.57;;
8944;SDS011;4507;40.232;29.132;2023-07-13T05:19:24;41.33;;;22.90;;
8944;SDS011;4507;40.232;29.132;2023-07-13T05:21:53;41.60;;;23.10;;
8944;SDS011;4507;40.232;29.132;2023-07-13T05:24:22;44.20;;;23.10;;
8944;SDS011;4507;40.232;29.132;2023-07-13T05:26:52;34.67;;;22.67;;
8944;SDS011;4507;40.232;29.132;2023-07-13T05:29:22;41.00;;;23.13;;
8944;SDS011;4507;40.232;29.132;2023-07-13T05:31:51;39.47;;;22.67;;
8944;SDS011;4507;40.232;29.132;2023-07-13T05:34:20;62.40;;;25.70;;
8944;SDS011;4507;40.232;29.132;2023-07-13T05:36:50;76.97;;;25.63;;
8944;SDS011;4507;40.232;29.132;2023-07-13T05:39:19;54.03;;;23.77;;
8944;SDS011;4507;40.232;29.132;2023-07-13T05:41:48;40.10;;;24.23;;
8944;SDS011;4507;40.232;29.132;2023-07-13T05:44:16;44.57;;;23.83;;
8944;SDS011;4507;40.232;29.132;2023-07-13T05:46:47;36.37;;;22.57;;
8944;SDS011;4507;40.232;29.132;2023-07-13T05:49:16;45.97;;;23.77;;
8944;SDS011;4507;40.232;29.132;2023-07-13T05:51:45;34.90;;;23.40;;
8944;SDS011;4507;40.232;29.132;2023-07-13T05:54:14;40.00;;;24.27;;
8944;SDS011;4507;40.232;29.132;2023-07-13T05:56:43;67.60;;;26.23;;
8944;SDS011;4507;40.232;29.132;2023-07-13T05:59:12;46.53;;;23.97;;
8944;SDS011;4507;40.232;29.132;2023-07-13T06:01:41;45.27;;;24.30;;
8944;SDS011;4507;40.232;29.132;2023-07-13T06:04:11;41.47;;;24.00;;
8944;SDS011;4507;40.232;29.132;2023-07-13T06:06:41;34.53;;;23.70;;
8944;SDS011;4507;40.232;29.132;2023-07-13T06:09:10;42.40;;;23.60;;
8944;SDS011;4507;40.232;29.132;2023-07-13T06:11:39;33.50;;;23.47;;
8944;SDS011;4507;40.232;29.132;2023-07-13T06:14:08;37.57;;;23.73;;
8944;SDS011;4507;40.232;29.132;2023-07-13T06:16:37;37.93;;;22.07;;
8944;SDS011;4507;40.232;29.132;2023-07-13T06:19:06;25.67;;;20.80;;
8944;SDS011;4507;40.232;29.132;2023-07-13T06:21:36;43.53;;;23.40;;
8944;SDS011;4507;40.232;29.132;2023-07-13T06:24:05;30.30;;;22.43;;
8944;SDS011;4507;40.232;29.132;2023-07-13T06:26:34;38.47;;;22.83;;
8944;SDS011;4507;40.232;29.132;2023-07-13T06:29:03;32.50;;;24.77;;
8944;SDS011;4507;40.232;29.132;2023-07-13T06:31:32;41.70;;;22.07;;
8944;SDS011;4507;40.232;29.132;2023-07-13T06:34:01;31.53;;;22.23;;
8944;SDS011;4507;40.232;29.132;2023-07-13T06:36:30;42.20;;;23.77;;
8944;SDS011;4507;40.232;29.132;2023-07-13T06:39:01;31.17;;;22.20;;
8944;SDS011;4507;40.232;29.132;2023-07-13T06:41:30;34.40;;;22.07;;
8944;SDS011;4507;40.232;29.132;2023-07-13T06:43:59;42.67;;;22.70;;
8944;SDS011;4507;40.232;29.132;2023-07-13T06:46:28;38.80;;;21.60;;
8944;SDS011;4507;40.232;29.132;2023-07-13T06:48:57;32.43;;;22.10;;
8944;SDS011;4507;40.232;29.132;2023-07-13T06:51:26;43.73;;;22.63;;
8944;SDS011;4507;40.232;29.132;2023-07-13T06:53:55;32.23;;;20.97;;
8944;SDS011;4507;40.232;29.132;2023-07-13T06:56:26;56.97;;;24.47;;
8944;SDS011;4507;40.232;29.132;2023-07-13T06:58:55;38.17;;;22.43;;
8944;SDS011;4507;40.232;29.132;2023-07-13T07:01:24;34.90;;;21.77;;
8944;SDS011;4507;40.232;29.132;2023-07-13T07:03:53;38.00;;;21.57;;
8944;SDS011;4507;40.232;29.132;2023-07-13T07:06:22;43.53;;;22.17;;
8944;SDS011;4507;40.232;29.132;2023-07-13T07:08:51;32.10;;;21.53;;
8944;SDS011;4507;40.232;29.132;2023-07-13T07:11:22;36.60;;;22.00;;
8944;SDS011;4507;40.232;29.132;2023-07-13T07:13:56;32.60;;;21.07;;
8944;SDS011;4507;40.232;29.132;2023-07-13T07:16:25;35.73;;;22.10;;
8944;SDS011;4507;40.232;29.132;2023-07-13T07:18:54;45.13;;;22.17;;
8944;SDS011;4507;40.232;29.132;2023-07-13T07:21:23;33.97;;;21.07;;
8944;SDS011;4507;40.232;29.132;2023-07-13T07:23:53;36.97;;;21.33;;
8944;SDS011;4507;40.232;29.132;2023-07-13T07:26:22;33.97;;;20.97;;
8944;SDS011;4507;40.232;29.132;2023-07-13T07:29:15;24.60;;;19.50;;
8944;SDS011;4507;40.232;29.132;2023-07-13T07:31:46;24.37;;;19.63;;
8944;SDS011;4507;40.232;29.132;2023-07-13T07:34:32;26.20;;;19.93;;
8944;SDS011;4507;40.232;29.132;2023-07-13T07:37:01;32.87;;;19.33;;
8944;SDS011;4507;40.232;29.132;2023-07-13T07:39:33;28.30;;;19.40;;
8944;SDS011;4507;40.232;29.132;2023-07-13T07:42:06;27.33;;;18.97;;
8944;SDS011;4507;40.232;29.132;2023-07-13T07:44:36;25.97;;;19.13;;
8944;SDS011;4507;40.232;29.132;2023-07-13T07:47:06;29.57;;;18.97;;
8944;SDS011;4507;40.232;29.132;2023-07-13T07:49:35;46.17;;;20.70;;
8944;SDS011;4507;40.232;29.132;2023-07-13T07:52:05;41.37;;;18.47;;
8944;SDS011;4507;40.232;29.132;2023-07-13T07:54:35;46.80;;;19.50;;
8944;SDS011;4507;40.232;29.132;2023-07-13T07:57:07;27.90;;;18.47;;
8944;SDS011;4507;40.232;29.132;2023-07-13T07:59:41;23.23;;;18.50;;
8944;SDS011;4507;40.232;29.132;2023-07-13T08:02:12;25.47;;;17.73;;
8944;SDS011;4507;40.232;29.132;2023-07-13T08:05:02;28.43;;;17.40;;
8944;SDS011;4507;40.232;29.132;2023-07-13T08:07:34;30.93;;;18.70;;
8944;SDS011;4507;40.232;29.132;2023-07-13T08:10:03;28.10;;;17.47;;
8944;SDS011;4507;40.232;29.132;2023-07-13T08:12:33;25.17;;;17.13;;
8944;SDS011;4507;40.232;29.132;2023-07-13T08:15:09;23.27;;;16.87;;
8944;SDS011;4507;40.232;29.132;2023-07-13T08:17:39;30.93;;;17.20;;
8944;SDS011;4507;40.232;29.132;2023-07-13T08:20:08;24.47;;;17.20;;
8944;SDS011;4507;40.232;29.132;2023-07-13T08:22:38;20.00;;;16.83;;
8944;SDS011;4507;40.232;29.132;2023-07-13T08:25:10;28.90;;;16.87;;
8944;SDS011;4507;40.232;29.132;2023-07-13T08:27:57;24.37;;;15.70;;
8944;SDS011;4507;40.232;29.132;2023-07-13T08:30:28;27.63;;;15.60;;
8944;SDS011;4507;40.232;29.132;2023-07-13T08:32:57;34.87;;;16.30;;
8944;SDS011;4507;40.232;29.132;2023-07-13T08:35:26;43.27;;;16.53;;
8944;SDS011;4507;40.232;29.132;2023-07-13T08:37:56;27.43;;;14.30;;
8944;SDS011;4507;40.232;29.132;2023-07-13T08:40:27;34.07;;;15.27;;
8944;SDS011;4507;40.232;29.132;2023-07-13T08:42:57;24.10;;;14.43;;
8944;SDS011;4507;40.232;29.132;2023-07-13T08:45:33;22.27;;;14.83;;
8944;SDS011;4507;40.232;29.132;2023-07-13T08:48:11;17.23;;;13.63;;
8944;SDS011;4507;40.232;29.132;2023-07-13T08:50:47;19.67;;;14.07;;
8944;SDS011;4507;40.232;29.132;2023-07-13T08:53:40;36.37;;;16.10;;
8944;SDS011;4507;40.232;29.132;2023-07-13T08:56:16;22.40;;;14.43;;
8944;SDS011;4507;40.232;29.132;2023-07-13T08:58:48;21.37;;;13.77;;
8944;SDS011;4507;40.232;29.132;2023-07-13T09:01:24;26.00;;;13.53;;
8944;SDS011;4507;40.232;29.132;2023-07-13T09:04:02;35.90;;;14.60;;
8944;SDS011;4507;40.232;29.132;2023-07-13T09:06:40;20.97;;;13.77;;
8944;SDS011;4507;40.232;29.132;2023-07-13T09:09:18;24.67;;;14.10;;
8944;SDS011;4507;40.232;29.132;2023-07-13T09:11:55;23.23;;;13.50;;
8944;SDS011;4507;40.232;29.132;2023-07-13T09:14:33;28.17;;;14.47;;
8944;SDS011;4507;40.232;29.132;2023-07-13T09:17:11;26.50;;;13.63;;
8944;SDS011;4507;40.232;29.132;2023-07-13T09:19:46;16.97;;;12.10;;
8944;SDS011;4507;40.232;29.132;2023-07-13T09:22:31;20.13;;;12.87;;
8944;SDS011;4507;40.232;29.132;2023-07-13T09:25:23;24.70;;;14.00;;
8944;SDS011;4507;40.232;29.132;2023-07-13T09:27:58;22.23;;;14.33;;
8944;SDS011;4507;40.232;29.132;2023-07-13T09:30:51;22.17;;;13.30;;
8944;SDS011;4507;40.232;29.132;2023-07-13T09:33:25;22.10;;;13.73;;
8944;SDS011;4507;40.232;29.132;2023-07-13T09:35:56;63.40;;;15.87;;
8944;SDS011;4507;40.232;29.132;2023-07-13T09:38:26;25.80;;;12.23;;
8944;SDS011;4507;40.232;29.132;2023-07-13T09:41:04;22.63;;;12.70;;
8944;SDS011;4507;40.232;29.132;2023-07-13T09:44:01;22.60;;;12.10;;
8944;SDS011;4507;40.232;29.132;2023-07-13T09:46:43;19.30;;;13.37;;
8944;SDS011;4507;40.232;29.132;2023-07-13T09:49:15;23.73;;;13.80;;
8944;SDS011;4507;40.232;29.132;2023-07-13T09:52:04;25.70;;;14.13;;
8944;SDS011;4507;40.232;29.132;2023-07-13T09:54:35;21.60;;;12.87;;
8944;SDS011;4507;40.232;29.132;2023-07-13T09:57:11;20.00;;;12.63;;
8944;SDS011;4507;40.232;29.132;2023-07-13T09:59:43;18.57;;;12.53;;
8944;SDS011;4507;40.232;29.132;2023-07-13T10:02:22;20.92;;;12.10;;
8944;SDS011;4507;40.232;29.132;2023-07-13T10:04:57;29.75;;;13.88;;
8944;SDS011;4507;40.232;29.132;2023-07-13T10:07:28;21.35;;;14.45;;
8944;SDS011;4507;40.232;29.132;2023-07-13T10:09:58;31.52;;;17.45;;
8944;SDS011;4507;40.232;29.132;2023-07-13T10:12:30;28.38;;;18.00;;
8944;SDS011;4507;40.232;29.132;2023-07-13T10:15:06;18.25;;;14.02;;
8944;SDS011;4507;40.232;29.132;2023-07-13T10:17:49;45.65;;;15.60;;
8944;SDS011;4507;40.232;29.132;2023-07-13T10:20:21;25.17;;;13.63;;
8944;SDS011;4507;40.232;29.132;2023-07-13T10:22:52;20.27;;;13.20;;
8944;SDS011;4507;40.232;29.132;2023-07-13T10:25:27;23.58;;;13.65;;
8944;SDS011;4507;40.232;29.132;2023-07-13T10:28:01;20.27;;;12.60;;
8944;SDS011;4507;40.232;29.132;2023-07-13T10:30:34;28.60;;;13.63;;
8944;SDS011;4507;40.232;29.132;2023-07-13T10:33:09;30.48;;;15.23;;
8944;SDS011;4507;40.232;29.132;2023-07-13T10:35:43;20.55;;;12.90;;
8944;SDS011;4507;40.232;29.132;2023-07-13T10:38:14;16.55;;;12.55;;
8944;SDS011;4507;40.232;29.132;2023-07-13T10:40:48;25.65;;;13.38;;
8944;SDS011;4507;40.232;29.132;2023-07-13T10:43:25;24.70;;;13.65;;
8944;SDS011;4507;40.232;29.132;2023-07-13T10:45:57;29.80;;;14.23;;
8944;SDS011;4507;40.232;29.132;2023-07-13T10:48:28;18.75;;;12.60;;
8944;SDS011;4507;40.232;29.132;2023-07-13T10:51:00;21.25;;;12.77;;
8944;SDS011;4507;40.232;29.132;2023-07-13T10:53:34;16.85;;;11.98;;
8944;SDS011;4507;40.232;29.132;2023-07-13T10:56:05;16.45;;;12.60;;
8944;SDS011;4507;40.232;29.132;2023-07-13T10:58:45;23.75;;;13.27;;
8944;SDS011;4507;40.232;29.132;2023-07-13T11:01:15;18.48;;;12.82;;
8944;SDS011;4507;40.232;29.132;2023-07-13T11:03:49;21.85;;;12.68;;
8944;SDS011;4507;40.232;29.132;2023-07-13T11:06:31;14.13;;;12.45;;
8944;SDS011;4507;40.232;29.132;2023-07-13T11:09:18;20.10;;;13.20;;
8944;SDS011;4507;40.232;29.132;2023-07-13T11:11:58;26.50;;;13.10;;
8944;SDS011;4507;40.232;29.132;2023-07-13T11:14:30;17.58;;;12.02;;
8944;SDS011;4507;40.232;29.132;2023-07-13T11:17:24;22.30;;;12.38;;
8944;SDS011;4507;40.232;29.132;2023-07-13T11:20:21;18.85;;;12.60;;
8944;SDS011;4507;40.232;29.132;2023-07-13T11:23:06;31.23;;;12.98;;
8944;SDS011;4507;40.232;29.132;2023-07-13T11:25:54;19.52;;;13.52;;
8944;SDS011;4507;40.232;29.132;2023-07-13T11:28:24;21.63;;;13.63;;
8944;SDS011;4507;40.232;29.132;2023-07-13T11:31:02;19.33;;;12.88;;
8944;SDS011;4507;40.232;29.132;2023-07-13T11:33:57;53.50;;;16.00;;
8944;SDS011;4507;40.232;29.132;2023-07-13T11:36:32;20.70;;;13.23;;
8944;SDS011;4507;40.232;29.132;2023-07-13T11:39:20;27.98;;;12.90;;
8944;SDS011;4507;40.232;29.132;2023-07-13T11:41:53;30.52;;;14.65;;
8944;SDS011;4507;40.232;29.132;2023-07-13T11:44:25;15.80;;;12.32;;
8944;SDS011;4507;40.232;29.132;2023-07-13T11:46:57;24.35;;;12.45;;
8944;SDS011;4507;40.232;29.132;2023-07-13T11:49:38;14.73;;;11.77;;
8944;SDS011;4507;40.232;29.132;2023-07-13T11:52:30;16.60;;;10.95;;
8944;SDS011;4507;40.232;29.132;2023-07-13T11:55:05;14.75;;;9.63;;
8944;SDS011;4507;40.232;29.132;2023-07-13T11:57:44;14.80;;;9.90;;
8944;SDS011;4507;40.232;29.132;2023-07-13T12:00:18;30.73;;;9.85;;
8944;SDS011;4507;40.232;29.132;2023-07-13T12:02:51;22.58;;;9.88;;
8944;SDS011;4507;40.232;29.132;2023-07-13T12:05:25;21.38;;;9.82;;
8944;SDS011;4507;40.232;29.132;2023-07-13T12:07:58;11.25;;;9.20;;
8944;SDS011;4507;40.232;29.132;2023-07-13T12:10:30;15.02;;;9.18;;
8944;SDS011;4507;40.232;29.132;2023-07-13T12:13:00;15.70;;;9.43;;
8944;SDS011;4507;40.232;29.132;2023-07-13T12:15:34;13.50;;;9.15;;
8944;SDS011;4507;40.232;29.132;2023-07-13T12:18:11;13.63;;;8.23;;
8944;SDS011;4507;40.232;29.132;2023-07-13T12:20:42;13.82;;;8.85;;
8944;SDS011;4507;40.232;29.132;2023-07-13T12:23:14;17.25;;;8.93;;
8944;SDS011;4507;40.232;29.132;2023-07-13T12:26:12;15.43;;;9.43;;
8944;SDS011;4507;40.232;29.132;2023-07-13T12:28:44;14.52;;;8.38;;
8944;SDS011;4507;40.232;29.132;2023-07-13T12:31:26;13.95;;;8.93;;
8944;SDS011;4507;40.232;29.132;2023-07-13T12:34:00;18.13;;;9.88;;
8944;SDS011;4507;40.232;29.132;2023-07-13T12:36:35;13.48;;;8.98;;
8944;SDS011;4507;40.232;29.132;2023-07-13T12:39:13;19.73;;;8.90;;
8944;SDS011;4507;40.232;29.132;2023-07-13T12:41:45;10.68;;;9.13;;
8944;SDS011;4507;40.232;29.132;2023-07-13T12:44:15;9.93;;;8.93;;
8944;SDS011;4507;40.232;29.132;2023-07-13T12:46:52;15.70;;;9.68;;
8944;SDS011;4507;40.232;29.132;2023-07-13T12:49:26;14.20;;;8.98;;
8944;SDS011;4507;40.232;29.132;2023-07-13T12:51:57;14.30;;;9.73;;
8944;SDS011;4507;40.232;29.132;2023-07-13T12:54:27;15.60;;;10.15;;
8944;SDS011;4507;40.232;29.132;2023-07-13T12:56:59;18.30;;;9.30;;
8944;SDS011;4507;40.232;29.132;2023-07-13T12:59:31;17.52;;;9.63;;
8944;SDS011;4507;40.232;29.132;2023-07-13T13:02:15;19.35;;;9.43;;
8944;SDS011;4507;40.232;29.132;2023-07-13T13:04:51;16.77;;;9.32;;
8944;SDS011;4507;40.232;29.132;2023-07-13T13:07:22;13.65;;;9.80;;
8944;SDS011;4507;40.232;29.132;2023-07-13T13:10:11;16.98;;;10.40;;
8944;SDS011;4507;40.232;29.132;2023-07-13T13:12:42;34.28;;;11.90;;
8944;SDS011;4507;40.232;29.132;2023-07-13T13:15:11;14.25;;;10.25;;
8944;SDS011;4507;40.232;29.132;2023-07-13T13:17:40;16.73;;;10.18;;
8944;SDS011;4507;40.232;29.132;2023-07-13T13:20:14;13.40;;;9.65;;
8944;SDS011;4507;40.232;29.132;2023-07-13T13:22:44;28.02;;;11.38;;
8944;SDS011;4507;40.232;29.132;2023-07-13T13:25:14;19.38;;;10.75;;
8944;SDS011;4507;40.232;29.132;2023-07-13T13:27:44;19.55;;;10.85;;
8944;SDS011;4507;40.232;29.132;2023-07-13T13:30:15;11.35;;;9.32;;
8944;SDS011;4507;40.232;29.132;2023-07-13T13:32:47;12.93;;;9.65;;
8944;SDS011;4507;40.232;29.132;2023-07-13T13:35:18;18.02;;;10.68;;
8944;SDS011;4507;40.232;29.132;2023-07-13T13:37:48;15.52;;;9.60;;
8944;SDS011;4507;40.232;29.132;2023-07-13T13:40:18;13.75;;;8.98;;
8944;SDS011;4507;40.232;29.132;2023-07-13T13:42:51;13.57;;;9.23;;
8944;SDS011;4507;40.232;29.132;2023-07-13T13:45:22;13.70;;;9.10;;
8944;SDS011;4507;40.232;29.132;2023-07-13T13:47:51;14.63;;;9.07;;
8944;SDS011;4507;40.232;29.132;2023-07-13T13:50:21;22.30;;;10.35;;
8944;SDS011;4507;40.232;29.132;2023-07-13T13:52:51;29.55;;;11.82;;
8944;SDS011;4507;40.232;29.132;2023-07-13T13:55:21;22.08;;;10.32;;
8944;SDS011;4507;40.232;29.132;2023-07-13T13:57:52;19.05;;;8.57;;
8944;SDS011;4507;40.232;29.132;2023-07-13T14:00:23;16.48;;;7.28;;
8944;SDS011;4507;40.232;29.132;2023-07-13T14:02:58;17.10;;;7.95;;
8944;SDS011;4507;40.232;29.132;2023-07-13T14:05:27;12.43;;;7.53;;
8944;SDS011;4507;40.232;29.132;2023-07-13T14:07:57;14.27;;;7.50;;
8944;SDS011;4507;40.232;29.132;2023-07-13T14:10:26;39.70;;;9.77;;
8944;SDS011;4507;40.232;29.132;2023-07-13T14:12:57;9.80;;;7.60;;
8944;SDS011;4507;40.232;29.132;2023-07-13T14:15:27;13.77;;;7.97;;
8944;SDS011;4507;40.232;29.132;2023-07-13T14:17:59;21.50;;;8.73;;
8944;SDS011;4507;40.232;29.132;2023-07-13T14:20:28;10.75;;;7.53;;
8944;SDS011;4507;40.232;29.132;2023-07-13T14:22:57;10.88;;;6.93;;
8944;SDS011;4507;40.232;29.132;2023-07-13T14:25:26;22.63;;;8.43;;
8944;SDS011;4507;40.232;29.132;2023-07-13T14:27:58;19.33;;;8.15;;
8944;SDS011;4507;40.232;29.132;2023-07-13T14:30:31;19.95;;;8.10;;
8944;SDS011;4507;40.232;29.132;2023-07-13T14:32:59;26.73;;;8.90;;
8944;SDS011;4507;40.232;29.132;2023-07-13T14:35:28;20.05;;;8.10;;
8944;SDS011;4507;40.232;29.132;2023-07-13T14:37:58;33.05;;;9.13;;
8944;SDS011;4507;40.232;29.132;2023-07-13T14:40:46;33.00;;;9.68;;
8944;SDS011;4507;40.232;29.132;2023-07-13T14:43:16;20.35;;;8.88;;
8944;SDS011;4507;40.232;29.132;2023-07-13T14:45:46;12.52;;;7.45;;
8944;SDS011;4507;40.232;29.132;2023-07-13T14:48:18;18.50;;;8.05;;
8944;SDS011;4507;40.232;29.132;2023-07-13T14:50:51;29.15;;;12.82;;
8944;SDS011;4507;40.232;29.132;2023-07-13T14:53:24;37.85;;;18.90;;
8944;SDS011;4507;40.232;29.132;2023-07-13T14:55:55;54.78;;;20.30;;
8944;SDS011;4507;40.232;29.132;2023-07-13T14:58:25;36.35;;;10.57;;
8944;SDS011;4507;40.232;29.132;2023-07-13T15:00:57;17.98;;;7.43;;
8944;SDS011;4507;40.232;29.132;2023-07-13T15:03:27;26.98;;;7.30;;
8944;SDS011;4507;40.232;29.132;2023-07-13T15:05:56;18.25;;;7.80;;
8944;SDS011;4507;40.232;29.132;2023-07-13T15:08:25;30.48;;;7.80;;
8944;SDS011;4507;40.232;29.132;2023-07-13T15:10:54;18.20;;;7.53;;
8944;SDS011;4507;40.232;29.132;2023-07-13T15:13:28;15.95;;;7.80;;
8944;SDS011;4507;40.232;29.132;2023-07-13T15:15:57;18.67;;;8.80;;
8944;SDS011;4507;40.232;29.132;2023-07-13T15:18:26;24.80;;;9.38;;
8944;SDS011;4507;40.232;29.132;2023-07-13T15:20:56;41.92;;;10.40;;
8944;SDS011;4507;40.232;29.132;2023-07-13T15:23:29;18.83;;;8.90;;